createdAt,value
2019-03-04T00:02:16.235Z,95063.73
2019-03-04T00:05:04.212Z,95047.06
2019-03-04T00:07:52.157Z,95045.99
2019-03-04T00:10:40.318Z,95048.23
2019-03-04T00:13:28.487Z,95045.53
2019-03-04T00:16:16.287Z,95036.81
2019-03-04T00:19:03.984Z,95035.00
2019-03-04T00:21:52.164Z,95027.00
2019-03-04T00:24:39.782Z,95029.70
2019-03-04T00:27:27.560Z,95021.59
2019-03-04T00:30:15.769Z,95025.78
2019-03-04T00:33:03.721Z,95026.78
2019-03-04T00:35:51.675Z,95030.98
2019-03-04T00:38:39.856Z,95021.92
2019-03-04T00:41:27.909Z,95017.94
2019-03-04T00:44:15.628Z,95022.42
2019-03-04T00:47:03.497Z,95025.41
2019-03-04T00:49:51.344Z,95014.60
2019-03-04T00:52:39.658Z,95002.44
2019-03-04T00:55:27.995Z,95004.95
2019-03-04T00:58:16.120Z,95004.05
2019-03-04T01:01:04.240Z,95005.83
2019-03-04T01:03:52.588Z,94996.58
2019-03-04T01:06:40.355Z,94993.66
2019-03-04T01:09:28.385Z,94982.58
2019-03-04T01:12:16.511Z,94977.39
2019-03-04T01:15:04.673Z,94982.79
2019-03-04T01:17:52.833Z,94973.19
2019-03-04T01:20:41.309Z,94977.21
2019-03-04T01:23:29.128Z,94962.41
2019-03-04T01:26:17.025Z,94947.79
2019-03-04T01:29:05.340Z,94943.16
2019-03-04T01:31:53.448Z,94937.99
2019-03-04T01:34:41.481Z,94930.81
2019-03-04T01:37:29.343Z,94911.02
2019-03-04T01:40:19.299Z,94908.73
2019-03-04T01:43:07.229Z,94913.27
2019-03-04T01:45:55.168Z,94920.80
2019-03-04T01:48:43.407Z,94914.83
2019-03-04T01:51:31.350Z,94919.78
2019-03-04T01:54:19.336Z,94902.22
2019-03-04T01:57:07.038Z,94893.45
2019-03-04T01:59:55.114Z,94885.45
2019-03-04T02:02:42.999Z,94881.98
2019-03-04T02:05:31.066Z,94872.84
2019-03-04T02:08:19.438Z,94852.89
2019-03-04T02:11:07.318Z,94842.62
2019-03-04T02:13:55.511Z,94842.95
2019-03-04T02:16:44.015Z,94823.69
2019-03-04T02:19:32.369Z,94822.55
2019-03-04T02:22:20.434Z,94823.45
2019-03-04T02:25:09.865Z,94821.64
2019-03-04T02:27:58.173Z,94813.08
2019-03-04T02:30:46.437Z,94822.10
2019-03-04T02:33:35.069Z,94821.05
2019-03-04T02:36:22.762Z,94833.87
2019-03-04T02:39:11.126Z,94819.52
2019-03-04T02:41:59.101Z,94823.50
2019-03-04T02:44:47.186Z,94810.36
2019-03-04T02:47:35.591Z,94813.17
2019-03-04T02:50:23.575Z,94808.35
2019-03-04T02:53:11.536Z,94826.34
2019-03-04T02:55:59.655Z,94797.88
2019-03-04T02:58:47.974Z,94800.25
2019-03-04T03:01:36.103Z,94789.00
2019-03-04T03:04:23.918Z,94773.47
2019-03-04T03:07:11.741Z,94759.97
2019-03-04T03:09:59.567Z,94756.79
2019-03-04T03:12:47.647Z,94770.49
2019-03-04T03:15:35.546Z,94761.50
2019-03-04T03:18:23.789Z,94768.05
2019-03-04T03:21:11.567Z,94758.14
2019-03-04T03:23:59.655Z,94731.67
2019-03-04T03:26:47.609Z,94728.36
2019-03-04T03:29:35.986Z,94719.13
2019-03-04T03:32:23.890Z,94730.53
2019-03-04T03:35:11.751Z,94711.92
2019-03-04T03:37:59.649Z,94703.36
2019-03-04T03:40:48.220Z,94694.08
2019-03-04T03:43:36.078Z,94692.34
2019-03-04T03:46:24.082Z,94687.37
2019-03-04T03:49:12.392Z,94691.61
2019-03-04T03:52:00.852Z,94686.52
2019-03-04T03:54:48.711Z,94675.25
2019-03-04T03:57:36.725Z,94663.73
2019-03-04T04:00:24.938Z,94667.56
2019-03-04T04:03:13.139Z,94643.73
2019-03-04T04:06:00.908Z,94634.18
2019-03-04T04:08:49.377Z,94629.41
2019-03-04T04:11:37.612Z,94617.15
2019-03-04T04:14:25.228Z,94612.95
2019-03-04T04:17:13.570Z,94616.86
2019-03-04T04:20:01.683Z,94611.46
2019-03-04T04:22:49.651Z,94593.91
2019-03-04T04:25:37.697Z,94586.94
2019-03-04T04:28:25.286Z,94581.09
2019-03-04T04:31:12.964Z,94581.09
2019-03-04T04:34:01.129Z,94581.00
2019-03-04T04:36:49.481Z,94580.63
2019-03-04T04:39:37.604Z,94569.69
2019-03-04T04:42:25.486Z,94563.83
2019-03-04T04:45:13.574Z,94551.98
2019-03-04T04:48:01.939Z,94554.69
2019-03-04T04:50:49.779Z,94543.30
2019-03-04T04:53:37.636Z,94531.02
2019-03-04T04:56:25.707Z,94533.19
2019-03-04T04:59:13.887Z,94531.31
2019-03-04T05:02:01.613Z,94530.84
2019-03-04T05:04:49.868Z,94516.97
2019-03-04T05:07:38.030Z,94511.64
2019-03-04T05:10:27.197Z,94495.33
2019-03-04T05:13:15.263Z,94495.28
2019-03-04T05:16:02.856Z,94503.66
2019-03-04T05:18:50.703Z,94486.12
2019-03-04T05:21:38.906Z,94478.46
2019-03-04T05:24:27.009Z,94479.39
2019-03-04T05:27:15.189Z,94478.73
2019-03-04T05:30:03.280Z,94472.97
2019-03-04T05:32:51.831Z,94461.30
2019-03-04T05:35:39.913Z,94453.73
2019-03-04T05:38:27.736Z,94443.22
2019-03-04T05:41:15.650Z,94417.59
2019-03-04T05:44:03.645Z,94418.17
2019-03-04T05:46:51.799Z,94417.23
2019-03-04T05:49:40.315Z,94416.59
2019-03-04T05:52:28.131Z,94409.19
2019-03-04T05:55:16.049Z,94410.12
2019-03-04T05:58:04.087Z,94390.60
2019-03-04T06:01:18.259Z,94396.84
2019-03-04T06:04:11.090Z,94396.91
2019-03-04T06:07:03.087Z,94406.74
2019-03-04T06:09:51.208Z,94410.44
2019-03-04T06:12:39.071Z,94418.34
2019-03-04T06:15:27.254Z,94430.90
2019-03-04T06:18:15.380Z,94416.50
2019-03-04T06:21:03.567Z,94433.13
2019-03-04T06:23:51.576Z,94424.73
2019-03-04T06:26:39.606Z,94436.42
2019-03-04T06:29:27.396Z,94443.48
2019-03-04T06:32:15.636Z,94443.30
2019-03-04T06:35:03.804Z,94458.09
2019-03-04T06:37:51.990Z,94425.88
2019-03-04T06:40:40.290Z,94450.08
2019-03-04T06:43:28.272Z,94447.38
2019-03-04T06:46:16.564Z,94437.78
2019-03-04T06:49:04.579Z,94435.31
2019-03-04T06:51:52.871Z,94418.70
2019-03-04T06:54:53.693Z,94428.84
2019-03-04T06:57:45.423Z,94443.47
2019-03-04T07:00:52.069Z,94456.76
2019-03-04T07:03:50.905Z,94475.87
2019-03-04T07:06:39.155Z,94473.02
2019-03-04T07:09:27.196Z,94469.45
2019-03-04T07:12:14.950Z,94481.47
2019-03-04T07:15:03.024Z,94495.48
2019-03-04T07:17:51.002Z,94507.59
2019-03-04T07:20:38.914Z,94523.09
2019-03-04T07:23:27.178Z,94518.47
2019-03-04T07:26:15.619Z,94519.48
2019-03-04T07:29:03.505Z,94521.95
2019-03-04T07:31:51.545Z,94535.27
2019-03-04T07:34:39.707Z,94536.98
2019-03-04T07:37:27.511Z,94530.82
2019-03-04T07:40:16.480Z,94533.84
2019-03-04T07:43:04.515Z,94532.61
2019-03-04T07:45:52.111Z,94546.39
2019-03-04T07:48:40.271Z,94536.33
2019-03-04T07:51:29.666Z,94555.34
2019-03-04T07:54:17.843Z,94561.70
2019-03-04T07:57:05.610Z,94553.84
2019-03-04T07:59:53.380Z,94570.40
2019-03-04T08:02:41.164Z,94528.69
2019-03-04T08:05:32.517Z,94521.41
2019-03-04T08:08:20.640Z,94507.25
2019-03-04T08:11:46.323Z,94508.90
2019-03-04T08:14:34.543Z,94514.14
2019-03-04T08:17:22.712Z,94499.86
2019-03-04T08:20:11.877Z,94485.96
2019-03-04T08:23:00.306Z,94510.23
2019-03-04T08:25:48.731Z,94520.19
2019-03-04T08:28:36.790Z,94534.61
2019-03-04T08:31:25.399Z,94540.39
2019-03-04T08:34:13.742Z,94572.28
2019-03-04T08:37:01.769Z,94572.39
2019-03-04T08:39:50.036Z,94594.75
2019-03-04T08:42:38.418Z,94590.70
2019-03-04T08:45:26.757Z,94598.72
2019-03-04T08:48:14.885Z,94597.33
2019-03-04T08:51:03.463Z,94592.06
2019-03-04T08:53:51.394Z,94589.61
2019-03-04T08:56:39.150Z,94618.80
2019-03-04T08:59:27.354Z,94631.09
2019-03-04T09:02:15.668Z,94627.41
2019-03-04T09:05:03.777Z,94636.13
2019-03-04T09:07:52.221Z,94640.16
2019-03-04T09:10:40.102Z,94648.42
2019-03-04T09:13:28.880Z,94666.70
2019-03-04T09:16:16.896Z,94670.28
2019-03-04T09:19:05.067Z,94681.73
2019-03-04T09:21:53.301Z,94670.47
2019-03-04T09:24:41.104Z,94665.70
2019-03-04T09:27:28.844Z,94666.86
2019-03-04T09:30:18.520Z,94668.74
2019-03-04T09:33:06.304Z,94699.41
2019-03-04T09:35:54.539Z,94723.05
2019-03-04T09:38:42.634Z,94729.48
2019-03-04T09:41:31.242Z,94743.08
2019-03-04T09:44:19.327Z,94770.14
2019-03-04T09:47:07.319Z,94780.17
2019-03-04T09:49:55.458Z,94771.98
2019-03-04T09:52:43.289Z,94764.95
2019-03-04T09:55:31.957Z,94765.94
2019-03-04T09:58:19.887Z,94769.45
2019-03-04T10:01:18.668Z,94776.13
2019-03-04T10:04:42.900Z,94798.45
2019-03-04T10:07:46.936Z,94815.33
2019-03-04T10:10:48.528Z,94832.41
2019-03-04T10:14:21.215Z,94834.44
2019-03-04T10:17:45.425Z,94833.34
2019-03-04T10:21:29.513Z,94842.09
2019-03-04T10:24:54.609Z,94875.39
2019-03-04T10:28:18.806Z,94892.99
2019-03-04T10:31:46.685Z,94870.97
2019-03-04T10:35:13.614Z,94884.27
2019-03-04T10:38:35.060Z,94915.08
2019-03-04T10:41:52.032Z,94934.73
2019-03-04T10:45:11.928Z,94903.14
2019-03-04T10:47:59.941Z,94910.41
2019-03-04T10:50:48.056Z,94911.97
2019-03-04T10:53:36.550Z,94911.20
2019-03-04T10:56:24.544Z,94915.91
2019-03-04T10:59:12.562Z,94917.87
2019-03-04T11:02:00.655Z,94919.26
2019-03-04T11:04:48.724Z,94920.70
2019-03-04T11:07:37.056Z,94938.65
2019-03-04T11:10:25.627Z,94894.16
2019-03-04T11:13:13.665Z,94890.47
2019-03-04T11:16:01.900Z,94900.30
2019-03-04T11:18:49.937Z,94863.07
2019-03-04T11:21:37.803Z,94845.67
2019-03-04T11:24:26.028Z,94858.16
2019-03-04T11:27:14.236Z,94850.34
2019-03-04T11:30:02.258Z,94834.41
2019-03-04T11:32:50.384Z,94834.41
2019-03-04T11:35:38.547Z,94806.72
2019-03-04T11:38:40.807Z,94825.47
2019-03-04T11:41:28.809Z,94821.97
2019-03-04T11:44:16.804Z,94782.89
2019-03-04T11:47:05.098Z,94825.14
2019-03-04T11:49:53.527Z,94817.98
2019-03-04T11:52:41.726Z,94817.81
2019-03-04T11:55:30.160Z,94804.33
2019-03-04T11:58:18.313Z,94797.10
2019-03-04T12:01:16.015Z,94790.83
2019-03-04T12:04:03.955Z,94788.48
2019-03-04T12:06:51.741Z,94799.38
2019-03-04T12:09:39.373Z,94761.07
2019-03-04T12:12:27.630Z,94790.09
2019-03-04T12:15:17.091Z,94813.78
2019-03-04T12:18:05.783Z,94808.97
2019-03-04T12:20:53.656Z,94810.55
2019-03-04T12:23:41.954Z,94815.94
2019-03-04T12:26:29.838Z,94809.31
2019-03-04T12:29:18.032Z,94791.11
2019-03-04T12:32:12.346Z,94806.96
2019-03-04T12:35:00.306Z,94807.84
2019-03-04T12:37:48.842Z,94807.98
2019-03-04T12:40:37.251Z,94805.15
2019-03-04T12:43:25.536Z,94811.89
2019-03-04T12:46:13.229Z,94813.81
2019-03-04T12:49:01.109Z,94807.19
2019-03-04T12:51:49.470Z,94810.34
2019-03-04T12:54:37.354Z,94782.70
2019-03-04T12:57:24.951Z,94804.72
2019-03-04T13:00:18.186Z,94799.55
2019-03-04T13:03:06.314Z,94804.71
2019-03-04T13:05:54.519Z,94783.38
2019-03-04T13:08:42.480Z,94788.53
2019-03-04T13:11:30.151Z,94775.50
2019-03-04T13:14:18.647Z,94775.04
2019-03-04T13:17:06.475Z,94782.93
2019-03-04T13:19:54.423Z,94782.58
2019-03-04T13:22:42.010Z,94785.27
2019-03-04T13:25:29.844Z,94787.41
2019-03-04T13:28:18.176Z,94793.02
2019-03-04T13:31:06.734Z,94794.05
2019-03-04T13:33:54.597Z,94788.98
2019-03-04T13:36:42.952Z,94797.29
2019-03-04T13:39:31.390Z,94778.38
2019-03-04T13:42:19.784Z,94774.30
2019-03-04T13:45:09.949Z,94778.55
2019-03-04T13:47:57.971Z,94766.38
2019-03-04T13:50:46.031Z,94758.02
2019-03-04T13:53:34.037Z,94784.81
2019-03-04T13:56:22.447Z,94779.73
2019-03-04T13:59:10.357Z,94778.66
2019-03-04T14:01:58.279Z,94767.45
2019-03-04T14:04:46.278Z,94760.52
2019-03-04T14:07:34.946Z,94767.20
2019-03-04T14:10:23.326Z,94773.33
2019-03-04T14:13:11.569Z,94760.13
2019-03-04T14:15:59.549Z,94762.02
2019-03-04T14:18:47.811Z,94756.16
2019-03-04T14:21:36.208Z,94753.81
2019-03-04T14:24:24.445Z,94791.70
2019-03-04T14:27:12.498Z,94775.16
2019-03-04T14:30:00.440Z,94782.15
2019-03-04T14:32:48.335Z,94778.59
2019-03-04T14:35:36.829Z,94775.59
2019-03-04T14:38:24.850Z,94755.02
2019-03-04T14:41:12.795Z,94794.44
2019-03-04T14:44:00.624Z,94808.83
2019-03-04T14:46:48.989Z,94822.44
2019-03-04T14:49:44.513Z,94794.89
2019-03-04T14:52:26.888Z,94801.03
2019-03-04T14:55:17.136Z,94803.83
2019-03-04T14:58:04.978Z,94811.40
2019-03-04T15:00:52.938Z,94774.35
2019-03-04T15:03:41.277Z,94807.23
2019-03-04T15:06:29.461Z,94816.35
2019-03-04T15:09:17.922Z,94802.36
2019-03-04T15:12:08.174Z,94838.48
2019-03-04T15:14:55.830Z,94838.64
2019-03-04T15:17:43.840Z,94840.92
2019-03-04T15:20:33.623Z,94844.67
2019-03-04T15:23:21.567Z,94843.48
2019-03-04T15:26:09.231Z,94876.58
2019-03-04T15:28:57.396Z,94853.52
2019-03-04T15:31:45.682Z,94857.23
2019-03-04T15:34:33.817Z,94894.73
2019-03-04T15:37:21.801Z,94862.36
2019-03-04T15:40:10.041Z,94887.11
2019-03-04T15:42:57.915Z,94899.70
2019-03-04T15:45:48.052Z,94903.52
2019-03-04T15:48:36.322Z,94932.05
2019-03-04T15:51:24.732Z,94894.72
2019-03-04T15:54:12.769Z,94897.07
2019-03-04T15:57:03.697Z,94905.14
2019-03-04T15:59:52.172Z,94918.78
2019-03-04T16:02:39.996Z,94942.61
2019-03-04T16:05:28.066Z,94900.08
2019-03-04T16:08:16.366Z,94895.37
2019-03-04T16:11:04.841Z,94913.70
2019-03-04T16:13:56.117Z,94905.33
2019-03-04T16:16:42.536Z,94890.12
2019-03-04T16:19:30.822Z,94923.39
2019-03-04T16:22:18.853Z,94933.66
2019-03-04T16:25:07.486Z,94929.19
2019-03-04T16:28:21.922Z,94946.50
2019-03-04T16:31:09.632Z,94930.08
2019-03-04T16:33:57.574Z,94937.88
2019-03-04T16:36:45.890Z,94957.92
2019-03-04T16:39:33.845Z,94951.12
2019-03-04T16:42:21.862Z,94925.58
2019-03-04T16:45:12.116Z,94950.55
2019-03-04T16:48:00.105Z,94946.44
2019-03-04T16:50:48.151Z,94930.14
2019-03-04T16:53:36.353Z,94931.78
2019-03-04T16:56:27.137Z,94938.64
2019-03-04T16:59:14.941Z,94941.50
2019-03-04T17:02:02.954Z,94938.70
2019-03-04T17:04:50.980Z,94948.05
2019-03-04T17:07:39.172Z,94955.63
2019-03-04T17:10:27.464Z,94956.75
2019-03-04T17:13:15.485Z,94959.67
2019-03-04T17:16:03.591Z,94946.78
2019-03-04T17:18:51.506Z,94951.94
2019-03-04T17:21:39.761Z,94952.53
2019-03-04T17:24:28.136Z,94948.71
2019-03-04T17:27:16.003Z,94943.33
2019-03-04T17:30:04.813Z,94959.86
2019-03-04T17:32:52.627Z,94967.13
2019-03-04T17:35:41.007Z,94969.73
2019-03-04T17:38:29.252Z,94962.57
2019-03-04T17:41:17.343Z,94965.97
2019-03-04T17:44:05.667Z,94983.04
2019-03-04T17:46:54.455Z,94980.81
2019-03-04T17:49:42.910Z,94978.22
2019-03-04T17:52:31.041Z,94994.08
2019-03-04T17:55:18.867Z,95001.29
2019-03-04T17:58:06.827Z,95011.14
2019-03-04T18:00:55.771Z,95027.75
2019-03-04T18:03:43.870Z,95026.20
2019-03-04T18:06:32.223Z,95026.22
2019-03-04T18:09:20.247Z,95043.00
2019-03-04T18:12:08.472Z,95052.61
2019-03-04T18:14:56.959Z,95041.59
2019-03-04T18:17:44.937Z,95030.73
2019-03-04T18:20:34.640Z,95067.41
2019-03-04T18:23:23.313Z,95064.25
2019-03-04T18:26:15.537Z,95063.78
2019-03-04T18:29:31.684Z,95084.94
2019-03-04T18:33:03.723Z,95074.32
2019-03-04T18:36:39.560Z,95076.47
2019-03-04T18:39:52.218Z,95077.62
2019-03-04T18:43:18.490Z,95072.22
2019-03-04T18:46:37.373Z,95073.64
2019-03-04T18:49:25.729Z,95066.88
2019-03-04T18:52:14.128Z,95067.52
2019-03-04T18:55:02.306Z,95069.10
2019-03-04T18:57:54.149Z,95071.20
2019-03-04T19:00:43.188Z,95064.42
2019-03-04T19:03:31.332Z,95080.36
2019-03-04T19:06:19.290Z,95063.95
2019-03-04T19:09:09.711Z,95063.58
2019-03-04T19:11:58.243Z,95071.93
2019-03-04T19:14:45.909Z,95084.77
2019-03-04T19:17:34.109Z,95087.05
2019-03-04T19:20:22.653Z,95098.38
2019-03-04T19:23:10.648Z,95087.47
2019-03-04T19:25:58.833Z,95094.50
2019-03-04T19:28:47.652Z,95096.92
2019-03-04T19:31:37.685Z,95088.08
2019-03-04T19:34:26.117Z,95113.20
2019-03-04T19:37:14.258Z,95107.47
2019-03-04T19:40:02.752Z,95099.24
2019-03-04T19:42:50.974Z,95109.80
2019-03-04T19:45:38.976Z,95107.70
2019-03-04T19:48:27.487Z,95096.94
2019-03-04T19:51:15.269Z,95096.87
2019-03-04T19:54:03.139Z,95100.31
2019-03-04T19:56:51.858Z,95088.61
2019-03-04T19:59:39.985Z,95097.64
2019-03-04T20:02:28.213Z,95105.84
2019-03-04T20:05:17.509Z,95100.81
2019-03-04T20:08:05.309Z,95106.00
2019-03-04T20:10:53.552Z,95116.37
2019-03-04T20:13:41.612Z,95114.17
2019-03-04T20:16:29.473Z,95112.89
2019-03-04T20:19:17.726Z,95103.08
2019-03-04T20:22:06.023Z,95100.55
2019-03-04T20:24:54.560Z,95107.44
2019-03-04T20:27:43.138Z,95134.41
2019-03-04T20:30:31.343Z,95135.66
2019-03-04T20:33:19.369Z,95150.42
2019-03-04T20:36:07.612Z,95152.86
2019-03-04T20:38:55.911Z,95153.22
2019-03-04T20:41:44.085Z,95167.69
2019-03-04T20:44:32.535Z,95157.23
2019-03-04T20:47:20.614Z,95157.20
2019-03-04T20:50:11.240Z,95176.13
2019-03-04T20:52:59.655Z,95166.27
2019-03-04T20:55:47.818Z,95189.07
2019-03-04T20:58:35.990Z,95178.82
2019-03-04T21:01:24.707Z,95204.28
2019-03-04T21:04:12.968Z,95206.55
2019-03-04T21:07:00.653Z,95194.23
2019-03-04T21:09:48.917Z,95206.31
2019-03-04T21:12:36.903Z,95262.48
2019-03-04T21:15:26.224Z,95269.21
2019-03-04T21:18:14.547Z,95275.85
2019-03-04T21:21:02.622Z,95274.13
2019-03-04T21:23:50.885Z,95298.24
2019-03-04T21:26:42.334Z,95300.23
2019-03-04T21:30:27.047Z,95309.31
2019-03-04T21:33:35.665Z,95300.91
2019-03-04T21:36:50.964Z,95291.25
2019-03-04T21:39:39.206Z,95280.37
2019-03-04T21:42:52.232Z,95279.88
2019-03-04T21:46:04.188Z,95283.73
2019-03-04T21:49:00.137Z,95294.50
2019-03-04T21:52:47.113Z,95299.28
2019-03-04T21:55:47.197Z,95293.07
2019-03-04T21:58:35.389Z,95300.19
2019-03-04T22:01:31.325Z,95304.63
2019-03-04T22:04:19.384Z,95331.03
2019-03-04T22:07:07.730Z,95336.72
2019-03-04T22:09:55.684Z,95340.45
2019-03-04T22:12:44.352Z,95348.64
2019-03-04T22:15:32.095Z,95365.83
2019-03-04T22:18:20.323Z,95363.16
2019-03-04T22:21:16.526Z,95362.25
2019-03-04T22:23:58.030Z,95374.55
2019-03-04T22:26:46.346Z,95356.23
2019-03-04T22:29:34.626Z,95365.89
2019-03-04T22:32:22.528Z,95358.92
2019-03-04T22:35:12.129Z,95356.19
2019-03-04T22:38:00.135Z,95351.34
2019-03-04T22:40:48.177Z,95352.55
2019-03-04T22:43:36.564Z,95349.71
2019-03-04T22:46:24.529Z,95348.99
2019-03-04T22:49:12.870Z,95343.59
2019-03-04T22:52:01.703Z,95357.70
2019-03-04T22:54:49.917Z,95347.97
2019-03-04T22:57:38.111Z,95353.85
2019-03-04T23:01:47.604Z,95349.69
2019-03-04T23:04:55.655Z,95342.75
2019-03-04T23:07:52.504Z,95344.70
2019-03-04T23:10:46.261Z,95365.02
2019-03-04T23:13:42.614Z,95350.17
2019-03-04T23:16:32.410Z,95352.59
2019-03-04T23:19:20.567Z,95352.42
2019-03-04T23:22:08.780Z,95342.85
2019-03-04T23:24:57.017Z,95346.84
2019-03-04T23:27:45.284Z,95347.71
2019-03-04T23:30:33.760Z,95344.07
2019-03-04T23:33:21.344Z,95350.80
2019-03-04T23:36:09.347Z,95353.03
2019-03-04T23:38:57.559Z,95350.51
2019-03-04T23:41:48.355Z,95346.52
2019-03-04T23:44:36.383Z,95353.89
2019-03-04T23:47:24.411Z,95368.83
2019-03-04T23:50:15.291Z,95344.95
2019-03-04T23:53:03.280Z,95358.34
2019-03-04T23:55:51.052Z,95355.48
2019-03-04T23:58:38.837Z,95359.85
